OICS  Sanandaj Airport

Add Bookmark

Iran

Status IATA
Operational SDG
Latitude Longitude
35° 14' 45" N 47° 0' 33" E
35.245899 47.009201
Local (DST + 5) UTC (GMT + 4)
Jul 29, 2014 11:09 Jul 29, 2014 06:39
Sunrise-Sunset Local UTC
Begin Civil Twilight 05:59 01:29
Sunrise 06:27 01:57
Sunset 08:29 15:59
End Civil Twilight 08:57 16:27

Current Weather

METAR Observed VFR
OICS 290600Z 35012KT CAVOK 26/05 Q1012 Tue, Jul 29, 2014 @ 06:00 UTC
(39 Minutes ago)
Visual Flight Rules

Decoded METAR

Wind Visibility Clouds Conditions
350° at 12 knots (22 kph) 10 km or more
  • Clear skies
  • No significant weather
Temperatures Readings Precipitation
Current Temp 26°C (79°F)
Dewpoint 5°C (41°F)
Humidity 26%
Altimeter 29.88"Hg
Sea Level Pressure 1012mb
Field Elevation 4504.59'
None Recorded

Additional weather within a 185.2km radius of OICS

Map ICAO Location
OICC 100.9km S (172°)
OIHH 146.5km E (106°)

24 Hour Weather History

Loading
-

24 Hour Weather Graphs

Loading
-

CheckWX.com is intended as a tool to help pilots better visualize weather data. It is not intended as a substitute for an official weather briefing obtained from a Flight Service Station. CheckWX.com does not meet the FAA requirements for an official pre-flight weather briefing. Therefore, it's important that pilots still call and obtain an official FSS pre-flight weather briefing.